Grand Ridge, Illinois
Current Conditions -  °F | °C
As of 1:55 AM on Friday 31 Oct 2014 (Local Time) from KVYS Reporting Station
Overcast Overcast  
Wind Chill: 41°   Ceiling: 4500
Heat Index: 46°   Visibility: 10mi
Dew Point: 39°   Wind: 10mph
Humidity: 78%   Direction: 300°WNW
Pressure: 30.07"   Gusts: NA
Location:  41.24°N, 88.83°W
Report Text: KVYS 310655Z AUTO 30009KT 10SM OVC045 08/04 A3007 RMK AO2 T00770041
Loading
Personal Weather Stations






























Interactive Weather Map
Tropical Storm Tracking
New forecast layout! Learn more

10-Day Weather Forecast

Advertisements
Track Severe Weather on mobile